Time;durP1;ratioP1;P1;durP2;ratioP2;P2;SDS_P1;SDS_P2;PMS_P1;PMS_P2;Temp;Humidity;BMP_temperature;BMP_pressure;BME280_temperature;BME280_humidity;BME280_pressure;Samples;Min_cycle;Max_cycle;Signal;HPM_P1;HPM_P2
2021/12/07 00:00:27;;;;;;;15.23;11.82;;;;;;;2.74;81.00;100291.81;3583831;40;20074;-65
2021/12/07 00:02:54;;;;;;;14.93;11.73;;;;;;;2.76;81.54;100292.63;3590177;40;20051;-66
2021/12/07 00:05:20;;;;;;;17.63;12.90;;;;;;;2.68;80.87;100276.97;3581744;40;20092;-65
2021/12/07 00:07:46;;;;;;;15.90;11.15;;;;;;;2.76;81.21;100297.94;3588443;40;20056;-65
2021/12/07 00:10:14;;;;;;;15.25;12.13;;;;;;;2.75;81.60;100304.13;3586886;40;20056;-65
2021/12/07 00:12:43;;;;;;;16.88;12.05;;;;;;;2.78;81.34;100304.88;3584519;40;20417;-66
2021/12/07 00:15:13;;;;;;;17.25;12.90;;;;;;;2.79;81.20;100305.75;3582915;40;20056;-64
2021/12/07 00:17:40;;;;;;;14.80;12.05;;;;;;;2.77;81.53;100307.59;3590818;40;20402;-66
2021/12/07 00:20:21;;;;;;;16.15;12.48;;;;;;;2.80;81.74;100302.19;3587320;40;20081;-66
2021/12/07 00:22:54;;;;;;;17.63;13.43;;;;;;;2.84;81.65;100314.41;3584745;40;20051;-65
2021/12/07 00:25:21;;;;;;;20.23;14.05;;;;;;;2.88;81.59;100316.00;3581362;40;20063;-66
2021/12/07 00:27:47;;;;;;;18.00;14.23;;;;;;;2.72;81.70;100285.69;3585076;40;20087;-66
2021/12/07 00:30:14;;;;;;;21.27;14.05;;;;;;;2.91;81.52;100321.19;3577776;40;20056;-65
2021/12/07 00:32:45;;;;;;;19.13;14.38;;;;;;;2.92;82.41;100315.00;3586882;40;20363;-65
2021/12/07 00:35:34;;;;;;;19.63;14.82;;;;;;;2.98;81.92;100320.06;3590053;40;20055;-66
2021/12/07 00:38:05;;;;;;;18.58;15.25;;;;;;;3.01;82.22;100333.22;3587974;40;20052;-67
2021/12/07 00:40:31;;;;;;;23.35;14.98;;;;;;;3.06;81.85;100329.50;3585836;40;20082;-67
2021/12/07 00:42:58;;;;;;;20.58;14.90;;;;;;;3.10;82.21;100337.28;3584212;40;20060;-66
2021/12/07 00:45:25;;;;;;;21.65;15.93;;;;;;;3.16;82.71;100346.81;3583819;40;20056;-66
2021/12/07 00:47:54;;;;;;;23.60;16.90;;;;;;;3.19;82.23;100344.91;3585958;40;20054;-65
2021/12/07 00:50:24;;;;;;;23.67;17.42;;;;;;;3.26;82.62;100340.22;3585785;40;20055;-66
2021/12/07 00:52:51;;;;;;;24.65;17.30;;;;;;;3.31;83.27;100346.22;3586725;40;20095;-65
2021/12/07 00:55:26;;;;;;;24.00;17.67;;;;;;;3.35;82.96;100352.25;3589193;40;20048;-67
2021/12/07 00:57:56;;;;;;;24.00;17.27;;;;;;;3.43;82.87;100355.50;3585046;40;20047;-66
2021/12/07 01:00:25;;;;;;;26.88;18.05;;;;;;;3.17;82.83;100304.28;3577986;40;20061;-66
2021/12/07 01:02:54;;;;;;;25.33;17.40;;;;;;;3.55;83.18;100359.44;3581311;40;20103;-66
2021/12/07 01:05:29;;;;;;;26.77;17.40;;;;;;;3.62;82.84;100371.56;3582215;40;20044;-66
2021/12/07 01:26:50;;;;;;;28.27;16.45;;;;;;;4.11;83.61;100412.06;3587540;40;20091;-65
2021/12/07 01:29:18;;;;;;;26.35;16.20;;;;;;;4.19;83.06;100415.28;3590422;40;20054;-65
2021/12/07 01:32:06;;;;;;;24.27;15.50;;;;;;;4.22;82.96;100417.81;3589750;40;20124;-65
2021/12/07 01:35:17;;;;;;;28.55;15.25;;;;;;;4.24;82.38;100415.94;3581512;40;20409;-66
2021/12/07 01:37:57;;;;;;;23.65;14.57;;;;;;;4.26;82.31;100418.56;3585034;40;20110;-64
2021/12/07 01:43:27;;;;;;;24.30;13.13;;;;;;;4.28;82.50;100430.88;3584547;40;20657;-64
2021/12/07 01:57:51;;;;;;;28.55;12.55;;;;;;;4.37;83.17;100442.88;3591161;40;20063;-65
2021/12/07 01:59:33;;;;;;;27.48;10.65;;;;;;;4.43;82.98;100450.63;3588974;40;20054;-66
2021/12/07 02:02:08;;;;;;;20.85;9.45;;;;;;;4.46;82.73;100458.47;3585704;40;20056;-66
2021/12/07 02:04:33;;;;;;;25.80;10.30;;;;;;;4.47;82.66;100462.00;3580760;40;20331;-67
2021/12/07 02:06:59;;;;;;;24.05;9.80;;;;;;;4.47;82.53;100459.31;3586003;40;20056;-64
2021/12/07 02:09:25;;;;;;;25.42;8.85;;;;;;;4.49;82.68;100465.47;3577994;40;20059;-66
2021/12/07 02:11:58;;;;;;;20.27;8.85;;;;;;;4.50;82.20;100473.38;3578534;40;20080;-68
2021/12/07 02:14:24;;;;;;;23.10;8.82;;;;;;;4.52;82.37;100475.97;3579879;40;20049;-67
2021/12/07 02:16:54;;;;;;;19.58;8.00;;;;;;;4.49;82.90;100470.78;3592113;40;20405;-66
2021/12/07 02:19:22;;;;;;;23.90;7.57;;;;;;;4.50;82.87;100475.16;3584201;40;20386;-65
2021/12/07 02:21:50;;;;;;;23.23;6.75;;;;;;;4.52;82.70;100471.50;3583126;40;20048;-67
2021/12/07 02:24:17;;;;;;;21.77;6.65;;;;;;;4.56;82.68;100488.22;3581456;40;20130;-64
2021/12/07 02:26:43;;;;;;;18.23;6.10;;;;;;;4.57;82.25;100490.84;3590451;40;20055;-64
2021/12/07 02:29:10;;;;;;;15.30;5.20;;;;;;;4.56;82.30;100496.22;3586706;40;20113;-65
2021/12/07 02:31:36;;;;;;;20.90;5.72;;;;;;;4.58;81.80;100497.00;3585690;40;21475;-65
2021/12/07 02:34:05;;;;;;;19.35;5.68;;;;;;;4.57;82.15;100497.97;3589026;40;20374;-64
2021/12/07 02:36:31;;;;;;;19.48;4.63;;;;;;;4.51;81.90;100501.75;3587458;40;20051;-67
2021/12/07 02:38:57;;;;;;;20.38;6.07;;;;;;;4.53;81.88;100506.97;3590641;40;20056;-67
2021/12/07 02:41:23;;;;;;;15.55;4.78;;;;;;;4.53;82.17;100514.97;3583549;40;20067;-66
2021/12/07 02:43:48;;;;;;;20.48;5.13;;;;;;;4.52;81.97;100507.91;3591344;40;20044;-66
2021/12/07 02:46:15;;;;;;;16.58;4.90;;;;;;;4.53;81.84;100514.97;3585907;40;20060;-66
2021/12/07 02:48:40;;;;;;;18.48;4.78;;;;;;;4.52;81.72;100518.56;3584332;40;20345;-65
2021/12/07 02:51:06;;;;;;;19.48;4.35;;;;;;;4.32;81.85;100496.31;3587123;40;20043;-66
2021/12/07 02:53:35;;;;;;;20.33;5.07;;;;;;;4.49;82.05;100529.34;3590366;40;20137;-64
2021/12/07 02:56:04;;;;;;;14.93;4.30;;;;;;;4.46;82.02;100529.47;3590813;40;20066;-63
2021/12/07 02:58:30;;;;;;;20.52;4.72;;;;;;;4.46;81.99;100540.97;3588450;40;20397;-63
2021/12/07 03:01:06;;;;;;;21.02;4.70;;;;;;;4.42;81.79;100545.56;3575112;40;20116;-65
2021/12/07 03:03:37;;;;;;;23.63;5.30;;;;;;;4.18;81.82;100509.31;3589637;40;20056;-66
2021/12/07 03:27:24;;;;;;;17.25;4.20;;;;;;;4.27;81.85;100572.78;3586882;40;20165;-64
2021/12/07 03:29:50;;;;;;;20.83;3.97;;;;;;;4.24;81.85;100567.59;3588401;40;20379;-64
2021/12/07 03:32:16;;;;;;;17.40;3.90;;;;;;;4.22;82.00;100579.22;3589458;40;20078;-64
2021/12/07 03:34:41;;;;;;;19.00;3.83;;;;;;;4.18;82.10;100578.47;3584358;40;20040;-64
2021/12/07 03:37:07;;;;;;;17.33;4.13;;;;;;;4.12;81.97;100570.72;3586803;39;20059;-64
2021/12/07 03:39:33;;;;;;;27.50;4.47;;;;;;;4.14;81.90;100582.19;3590352;40;20052;-65
2021/12/07 03:41:58;;;;;;;21.25;4.03;;;;;;;4.17;81.86;100598.88;3587212;40;20050;-64
2021/12/07 03:44:24;;;;;;;22.38;4.53;;;;;;;4.16;81.87;100601.63;3585060;40;20121;-64
2021/12/07 03:46:50;;;;;;;19.13;4.10;;;;;;;4.13;81.94;100605.25;3592325;40;20406;-64
2021/12/07 03:49:16;;;;;;;18.83;4.22;;;;;;;4.15;82.32;100611.41;3591983;40;20067;-65
2021/12/07 03:51:42;;;;;;;21.15;4.10;;;;;;;4.14;82.25;100611.44;3591343;40;20050;-64
2021/12/07 03:54:07;;;;;;;25.27;3.95;;;;;;;4.08;82.29;100603.69;3590707;40;20059;-65
2021/12/07 03:56:33;;;;;;;22.70;3.95;;;;;;;4.12;82.52;100605.31;3590872;39;20082;-64
2021/12/07 03:58:59;;;;;;;21.17;3.95;;;;;;;4.13;81.98;100607.06;3592608;40;20054;-65
2021/12/07 04:01:25;;;;;;;15.05;3.65;;;;;;;4.13;81.99;100618.56;3589423;40;20091;-65
2021/12/07 04:03:53;;;;;;;16.38;3.88;;;;;;;4.09;81.60;100613.41;3589783;40;20360;-63
2021/12/07 04:06:21;;;;;;;15.85;3.65;;;;;;;4.11;82.06;100608.91;3579100;40;20055;-62
2021/12/07 04:08:46;;;;;;;17.00;3.60;;;;;;;3.92;81.64;100583.00;3592342;40;20120;-64
2021/12/07 04:11:14;;;;;;;20.45;4.05;;;;;;;4.06;82.08;100614.41;3588124;40;20048;-64
2021/12/07 04:13:40;;;;;;;21.77;3.42;;;;;;;4.04;82.17;100618.06;3588059;40;20129;-64
2021/12/07 04:16:08;;;;;;;16.95;3.58;;;;;;;4.05;82.09;100619.78;3590666;40;20387;-64
2021/12/07 04:18:35;;;;;;;20.45;3.88;;;;;;;3.80;82.28;100587.91;3587789;40;20100;-64
2021/12/07 04:21:02;;;;;;;19.88;3.72;;;;;;;4.02;82.00;100625.22;3584780;40;20048;-64
2021/12/07 04:23:31;;;;;;;21.35;3.33;;;;;;;3.97;81.75;100627.19;3592189;40;20048;-64
2021/12/07 04:25:58;;;;;;;17.13;3.97;;;;;;;3.77;81.77;100596.00;3589597;40;20048;-64
2021/12/07 04:28:24;;;;;;;21.98;3.80;;;;;;;3.97;82.02;100637.84;3591438;40;20072;-65
2021/12/07 04:30:50;;;;;;;17.38;3.25;;;;;;;3.97;82.27;100632.50;3591123;40;20059;-64
2021/12/07 04:33:16;;;;;;;15.13;3.80;;;;;;;3.94;82.13;100631.69;3589916;40;20121;-64
2021/12/07 04:35:49;;;;;;;16.52;3.30;;;;;;;3.98;81.88;100642.22;3592078;39;20040;-65
2021/12/07 04:38:17;;;;;;;18.42;3.47;;;;;;;3.99;82.83;100636.81;3591815;40;20147;-64
2021/12/07 04:40:43;;;;;;;16.08;3.53;;;;;;;4.00;82.27;100632.41;3591472;40;20402;-65
2021/12/07 04:43:10;;;;;;;19.10;4.00;;;;;;;4.00;82.35;100648.34;3590292;40;20619;-64
2021/12/07 04:57:37;;;;;;;16.98;3.20;;;;;;;4.04;82.30;100649.97;3591726;40;20133;-64
2021/12/07 04:59:18;;;;;;;17.70;3.58;;;;;;;4.01;81.91;100655.41;3589574;40;20046;-64
2021/12/07 05:01:45;;;;;;;16.75;3.33;;;;;;;4.00;82.15;100645.69;3585456;40;20114;-64
2021/12/07 05:04:16;;;;;;;14.38;3.55;;;;;;;3.95;82.10;100649.38;3592219;40;20059;-65
2021/12/07 05:06:48;;;;;;;12.27;3.05;;;;;;;3.94;82.31;100663.59;3590409;40;20048;-65
2021/12/07 05:10:11;;;;;;;18.35;3.25;;;;;;;3.88;81.95;100655.84;3589908;40;20091;-64
2021/12/07 05:12:22;;;;;;;13.63;2.85;;;;;;;3.86;81.63;100668.31;3589967;40;20117;-64
2021/12/07 05:14:47;;;;;;;16.70;3.20;;;;;;;3.82;81.78;100671.16;3591911;40;20051;-65
2021/12/07 05:17:25;;;;;;;20.08;4.15;;;;;;;3.77;81.56;100673.97;3589217;39;20048;-65
2021/12/07 05:26:00;;;;;;;14.68;3.70;;;;;;;3.59;81.91;100677.31;3592585;40;20329;-64
2021/12/07 05:39:11;;;;;;;18.60;5.22;;;;;;;3.37;82.75;100719.69;3585444;40;20006;-65
2021/12/07 05:41:36;;;;;;;19.33;5.60;;;;;;;3.34;82.65;100718.00;3585410;40;20052;-64
2021/12/07 05:44:03;;;;;;;20.20;6.32;;;;;;;3.33;83.23;100721.59;3586816;40;20162;-64
2021/12/07 05:46:29;;;;;;;19.88;6.22;;;;;;;3.32;82.77;100733.13;3590541;40;20055;-65
2021/12/07 05:48:54;;;;;;;21.13;6.70;;;;;;;3.35;82.65;100734.81;3589648;40;20051;-64
2021/12/07 05:51:20;;;;;;;22.48;6.53;;;;;;;3.35;82.73;100737.47;3592212;40;20057;-64
2021/12/07 05:53:45;;;;;;;20.90;6.30;;;;;;;3.34;82.25;100743.72;3588899;40;20448;-64
2021/12/07 05:56:11;;;;;;;23.45;6.80;;;;;;;3.33;82.27;100748.16;3585936;40;20413;-65
2021/12/07 05:58:37;;;;;;;21.85;6.45;;;;;;;3.26;83.05;100735.97;3586109;39;20059;-64
2021/12/07 06:01:04;;;;;;;22.05;6.68;;;;;;;3.30;82.43;100755.34;3586006;40;20055;-64
2021/12/07 06:03:30;;;;;;;21.73;6.70;;;;;;;3.34;82.48;100757.88;3589552;40;20079;-64
2021/12/07 06:05:56;;;;;;;23.27;6.80;;;;;;;3.33;83.09;100753.47;3592165;40;20040;-64
2021/12/07 06:08:22;;;;;;;21.85;6.55;;;;;;;3.31;82.66;100750.00;3585347;40;20052;-64
2021/12/07 06:10:48;;;;;;;26.60;6.10;;;;;;;3.02;81.95;100703.16;3589579;40;20438;-65
2021/12/07 06:13:14;;;;;;;28.95;6.82;;;;;;;3.29;82.65;100754.47;3584928;40;20345;-64
2021/12/07 06:15:44;;;;;;;22.20;7.88;;;;;;;3.25;82.09;100755.50;3587191;40;20067;-64
2021/12/07 06:18:10;;;;;;;29.88;7.63;;;;;;;3.22;82.29;100756.47;3588929;40;20117;-65
2021/12/07 06:20:36;;;;;;;23.35;6.78;;;;;;;3.12;82.34;100731.13;3587800;40;20294;-64
2021/12/07 06:23:02;;;;;;;25.92;6.70;;;;;;;3.10;82.79;100727.66;3592538;40;20125;-64
2021/12/07 06:25:29;;;;;;;20.95;7.03;;;;;;;3.17;82.18;100762.84;3592103;40;20092;-65
2021/12/07 06:27:54;;;;;;;23.58;7.45;;;;;;;3.15;82.32;100754.06;3592844;40;20186;-65
2021/12/07 06:30:20;;;;;;;23.48;7.22;;;;;;;3.11;82.49;100758.63;3591215;40;20411;-65
2021/12/07 06:32:45;;;;;;;20.52;6.95;;;;;;;3.11;82.51;100771.00;3591305;40;20052;-65
2021/12/07 06:35:11;;;;;;;26.08;7.43;;;;;;;3.08;82.98;100765.81;3592118;40;20275;-64
2021/12/07 06:37:37;;;;;;;22.35;7.70;;;;;;;3.06;83.01;100775.63;3583671;40;20055;-64
2021/12/07 06:40:09;;;;;;;24.33;7.60;;;;;;;2.96;82.96;100752.00;3590930;40;20459;-64
2021/12/07 06:42:38;;;;;;;23.10;7.60;;;;;;;3.05;82.72;100768.56;3592635;40;20095;-65
2021/12/07 06:45:07;;;;;;;21.92;7.50;;;;;;;3.07;83.12;100766.72;3592465;40;20052;-64
2021/12/07 06:47:33;;;;;;;30.27;8.32;;;;;;;3.00;82.64;100755.44;3593408;40;20052;-64
2021/12/07 06:49:59;;;;;;;23.77;7.00;;;;;;;2.88;82.64;100735.44;3592231;40;20379;-65
2021/12/07 06:52:24;;;;;;;25.30;7.60;;;;;;;2.97;82.95;100750.22;3591577;40;20059;-65
2021/12/07 06:54:50;;;;;;;31.50;7.82;;;;;;;3.01;83.16;100768.66;3592261;40;20273;-64
2021/12/07 06:57:16;;;;;;;25.70;7.22;;;;;;;3.01;82.95;100765.13;3591241;40;20051;-65
2021/12/07 06:59:41;;;;;;;27.33;7.38;;;;;;;3.04;82.62;100765.03;3592549;40;20052;-65
2021/12/07 07:02:08;;;;;;;27.38;7.68;;;;;;;3.00;83.27;100772.22;3592233;40;20044;-65
2021/12/07 07:04:33;;;;;;;21.33;7.50;;;;;;;3.07;82.90;100777.34;3592392;40;21442;-65
2021/12/07 07:06:59;;;;;;;27.02;7.25;;;;;;;3.02;82.49;100770.41;3592198;39;20105;-64
2021/12/07 07:09:25;;;;;;;27.50;8.10;;;;;;;3.07;83.06;100777.34;3589137;40;20152;-64
2021/12/07 07:11:50;;;;;;;25.00;7.55;;;;;;;3.06;83.35;100778.28;3588594;40;20067;-65
2021/12/07 07:14:16;;;;;;;24.92;7.80;;;;;;;3.07;82.31;100780.84;3584854;40;20059;-65
2021/12/07 07:16:42;;;;;;;25.70;7.28;;;;;;;3.01;83.00;100767.78;3584601;40;20055;-65
2021/12/07 07:19:08;;;;;;;24.40;7.65;;;;;;;3.10;83.37;100771.94;3587805;40;20047;-65
2021/12/07 07:21:34;;;;;;;24.48;7.60;;;;;;;3.04;83.12;100762.38;3585854;40;20074;-65
2021/12/07 07:24:00;;;;;;;25.40;8.07;;;;;;;3.05;82.62;100768.56;3587305;40;20085;-64
2021/12/07 07:26:25;;;;;;;28.40;7.85;;;;;;;2.96;82.34;100752.00;3592207;40;20626;-64
2021/12/07 07:28:51;;;;;;;24.77;7.53;;;;;;;3.11;82.08;100784.28;3591690;40;20062;-65
2021/12/07 07:31:16;;;;;;;25.13;7.20;;;;;;;3.01;82.13;100781.06;3588458;39;20660;-65
2021/12/07 07:33:42;;;;;;;19.95;7.05;;;;;;;3.09;82.57;100802.06;3576103;40;20060;-65
2021/12/07 07:36:08;;;;;;;21.58;6.65;;;;;;;3.14;82.84;100797.47;3587608;40;20109;-65
2021/12/07 07:38:34;;;;;;;18.27;6.78;;;;;;;3.09;82.54;100786.13;3589797;40;20503;-66
2021/12/07 07:41:01;;;;;;;19.25;7.00;;;;;;;3.17;82.26;100794.72;3591722;40;20044;-66
2021/12/07 07:43:28;;;;;;;22.15;7.97;;;;;;;3.18;82.07;100788.50;3589733;40;20117;-66
2021/12/07 07:45:55;;;;;;;27.02;8.00;;;;;;;3.21;82.66;100793.72;3592649;40;20058;-66
2021/12/07 07:48:22;;;;;;;23.10;7.53;;;;;;;2.86;82.54;100731.13;3591438;40;21354;-66
2021/12/07 07:50:51;;;;;;;23.58;8.23;;;;;;;3.29;82.17;100794.31;3584209;40;20052;-66
2021/12/07 07:53:17;;;;;;;24.35;7.47;;;;;;;3.24;82.55;100769.72;3591072;40;20608;-66
2021/12/07 07:55:43;;;;;;;25.75;7.85;;;;;;;3.36;81.86;100785.25;3590694;40;20043;-67
2021/12/07 07:58:11;;;;;;;25.00;8.05;;;;;;;3.37;82.24;100780.81;3590041;40;20050;-66
2021/12/07 08:00:40;;;;;;;29.02;7.38;;;;;;;3.35;82.27;100775.53;3586228;40;20044;-67
2021/12/07 08:03:06;;;;;;;22.45;6.75;;;;;;;3.39;81.75;100776.28;3587891;39;20083;-66
2021/12/07 08:05:32;;;;;;;24.15;7.65;;;;;;;3.41;82.41;100777.97;3590423;39;20064;-66
2021/12/07 08:07:58;;;;;;;21.83;6.70;;;;;;;2.69;81.22;100662.63;3585795;40;20056;-66
2021/12/07 08:10:28;;;;;;;20.85;7.15;;;;;;;3.43;81.50;100788.59;3584942;39;20060;-66
2021/12/07 08:13:00;;;;;;;19.92;6.55;;;;;;;3.45;81.84;100787.59;3590638;40;20068;-66
2021/12/07 08:15:29;;;;;;;18.33;5.97;;;;;;;3.46;81.52;100793.78;3584627;40;20060;-67
2021/12/07 08:17:56;;;;;;;21.02;6.82;;;;;;;3.48;81.29;100800.78;3588796;40;20070;-67
2021/12/07 08:20:22;;;;;;;19.40;6.07;;;;;;;3.20;81.14;100763.63;3587312;39;20421;-67
2021/12/07 08:22:47;;;;;;;18.00;5.72;;;;;;;3.49;81.50;100807.84;3586864;40;20064;-66
2021/12/07 08:25:14;;;;;;;19.27;6.15;;;;;;;3.53;80.89;100818.38;3585099;39;20055;-66
2021/12/07 08:27:40;;;;;;;20.38;6.25;;;;;;;3.32;80.75;100782.72;3585033;40;20062;-66
2021/12/07 08:30:10;;;;;;;20.65;6.65;;;;;;;3.52;81.50;100816.63;3585462;40;20056;-66
2021/12/07 08:32:36;;;;;;;16.67;5.45;;;;;;;3.54;81.11;100822.75;3577651;39;20056;-66
2021/12/07 08:35:02;;;;;;;23.48;6.00;;;;;;;3.57;81.30;100825.31;3589364;40;20054;-66
2021/12/07 08:37:28;;;;;;;19.35;5.38;;;;;;;3.55;80.90;100817.38;3586879;39;20091;-66
2021/12/07 08:39:54;;;;;;;15.85;5.38;;;;;;;3.57;80.72;100814.69;3588239;40;20048;-66
2021/12/07 08:42:20;;;;;;;17.33;5.05;;;;;;;3.60;80.55;100825.22;3574985;40;20051;-67
2021/12/07 08:44:47;;;;;;;12.73;5.03;;;;;;;3.57;80.72;100830.63;3588201;40;20325;-67
2021/12/07 08:47:13;;;;;;;15.85;4.82;;;;;;;3.55;81.10;100832.47;3585203;40;20048;-67
2021/12/07 08:49:39;;;;;;;9.27;4.53;;;;;;;3.57;80.82;100812.91;3587884;40;20059;-67
2021/12/07 08:52:05;;;;;;;15.75;4.75;;;;;;;3.72;80.42;100804.41;3587146;40;20055;-66
2021/12/07 08:59:45;;;;;;;15.40;5.45;;;;;;;3.78;80.54;100808.66;3588210;39;20079;-64
2021/12/07 09:02:18;;;;;;;12.82;4.80;;;;;;;3.78;80.39;100791.84;3593025;40;20043;-64
2021/12/07 09:04:45;;;;;;;20.60;5.20;;;;;;;3.82;79.93;100794.31;3589111;40;20060;-64
2021/12/07 09:07:11;;;;;;;15.88;5.10;;;;;;;3.88;79.99;100785.28;3589308;39;20060;-64
2021/12/07 09:09:37;;;;;;;15.15;4.85;;;;;;;3.54;79.94;100719.97;3588981;40;20121;-64
2021/12/07 09:12:07;;;;;;;12.80;4.88;;;;;;;3.94;79.87;100775.28;3593122;40;20358;-63
2021/12/07 09:14:34;;;;;;;18.25;5.88;;;;;;;3.95;79.89;100773.50;3586905;40;20103;-62
2021/12/07 09:17:04;;;;;;;14.38;4.75;;;;;;;3.94;79.40;100764.66;3592686;40;20124;-64
2021/12/07 09:19:32;;;;;;;16.52;5.07;;;;;;;4.05;79.77;100779.34;3593826;40;20083;-67
2021/12/07 09:21:57;;;;;;;13.43;4.60;;;;;;;4.09;79.52;100783.63;3594250;40;20071;-65
2021/12/07 09:24:24;;;;;;;10.95;4.53;;;;;;;4.10;79.13;100782.72;3592537;40;21408;-62
2021/12/07 09:26:50;;;;;;;16.75;4.53;;;;;;;4.14;79.23;100787.88;3593794;40;20062;-63
2021/12/07 09:29:16;;;;;;;15.32;4.88;;;;;;;4.18;79.13;100781.50;3587696;40;20347;-63
2021/12/07 09:31:43;;;;;;;17.80;5.03;;;;;;;4.26;79.55;100789.22;3589615;40;20052;-62
2021/12/07 09:34:11;;;;;;;17.73;5.20;;;;;;;3.93;78.53;100724.81;3590336;39;20052;-62
2021/12/07 09:36:40;;;;;;;20.13;4.88;;;;;;;4.30;78.58;100785.53;3592820;40;20115;-62
2021/12/07 09:39:11;;;;;;;13.82;4.43;;;;;;;4.31;79.00;100770.41;3595934;39;20060;-63
2021/12/07 09:41:38;;;;;;;12.63;4.65;;;;;;;4.45;78.73;100789.44;3594115;40;20056;-64
2021/12/07 09:44:07;;;;;;;14.05;4.05;;;;;;;4.52;78.97;100785.59;3589464;40;20282;-64
2021/12/07 09:46:35;;;;;;;14.75;4.63;;;;;;;4.61;77.98;100781.72;3589740;39;20060;-64
2021/12/07 09:49:03;;;;;;;14.57;4.68;;;;;;;4.70;77.78;100773.41;3590516;40;20126;-65
2021/12/07 09:51:29;;;;;;;14.10;4.20;;;;;;;4.92;77.10;100780.56;3586609;40;20067;-64
2021/12/07 09:53:58;;;;;;;17.15;4.78;;;;;;;5.09;76.08;100786.94;3576698;40;20063;-65
2021/12/07 09:56:25;;;;;;;14.15;4.22;;;;;;;5.21;76.58;100784.72;3585206;40;20052;-63
2021/12/07 09:58:55;;;;;;;14.70;4.38;;;;;;;5.28;75.70;100768.41;3588631;40;20044;-64
2021/12/07 10:01:25;;;;;;;12.48;4.35;;;;;;;5.49;74.65;100773.81;3586971;40;20346;-64
2021/12/07 10:03:52;;;;;;;14.73;4.90;;;;;;;5.67;75.24;100773.00;3591410;40;20117;-64
2021/12/07 10:06:19;;;;;;;13.32;4.30;;;;;;;5.82;73.83;100768.81;3593896;40;20051;-65
2021/12/07 10:08:45;;;;;;;15.20;4.53;;;;;;;5.76;72.56;100743.28;3584950;40;20052;-64
2021/12/07 10:11:12;;;;;;;11.32;3.85;;;;;;;6.03;73.15;100761.72;3585584;40;20049;-66
2021/12/07 10:13:45;;;;;;;15.35;4.38;;;;;;;6.18;72.37;100758.34;3579928;40;20043;-65
2021/12/07 10:16:15;;;;;;;15.15;4.05;;;;;;;6.40;71.59;100752.06;3588720;40;20133;-64
2021/12/07 10:18:42;;;;;;;13.45;3.72;;;;;;;6.53;71.31;100745.22;3593666;40;20056;-64
2021/12/07 10:21:17;;;;;;;11.45;3.90;;;;;;;6.63;70.72;100743.88;3592606;40;20051;-63
2021/12/07 10:23:53;;;;;;;12.65;4.40;;;;;;;6.73;70.89;100755.84;3590676;40;20051;-65
2021/12/07 10:26:30;;;;;;;13.68;3.72;;;;;;;6.89;69.83;100755.13;3589717;40;20052;-64
2021/12/07 10:29:06;;;;;;;14.10;4.13;;;;;;;7.02;70.24;100747.38;3592003;40;20083;-64
2021/12/07 10:31:56;;;;;;;13.05;4.72;;;;;;;7.15;69.90;100748.50;3593111;40;20063;-64
2021/12/07 10:34:31;;;;;;;14.77;3.70;;;;;;;7.33;68.99;100754.78;3590794;40;20052;-64
2021/12/07 10:37:15;;;;;;;15.07;4.18;;;;;;;7.37;69.21;100741.16;3593855;40;20040;-65
2021/12/07 10:39:53;;;;;;;10.02;3.58;;;;;;;7.59;67.46;100729.38;3591105;40;20058;-64
2021/12/07 10:42:27;;;;;;;11.57;3.50;;;;;;;7.71;67.58;100723.41;3593318;40;20044;-64
2021/12/07 10:44:53;;;;;;;13.93;3.63;;;;;;;7.84;67.02;100719.16;3592862;40;20058;-64
2021/12/07 10:47:23;;;;;;;10.82;4.00;;;;;;;8.04;66.21;100715.41;3590200;39;20048;-64
2021/12/07 10:49:59;;;;;;;14.30;4.25;;;;;;;8.20;66.21;100703.88;3589690;40;20050;-64
2021/12/07 10:52:33;;;;;;;12.77;3.78;;;;;;;8.26;65.02;100708.91;3592768;40;20063;-64
2021/12/07 10:55:18;;;;;;;;;;;;;;;8.36;65.08;100702.97;3591462;40;20044;-65
2021/12/07 10:57:57;;;;;;;14.00;4.13;;;;;;;8.42;64.70;100696.44;3593292;40;19928;-64
2021/12/07 11:00:39;;;;;;;16.15;4.00;;;;;;;8.56;64.43;100688.53;3590685;40;20067;-64
2021/12/07 11:03:10;;;;;;;15.23;3.95;;;;;;;8.71;64.36;100689.47;3593555;40;20387;-64
2021/12/07 11:05:50;;;;;;;9.40;3.67;;;;;;;8.85;62.98;100683.34;3593364;40;20048;-65
2021/12/07 11:08:19;;;;;;;12.55;3.90;;;;;;;9.00;61.81;100666.34;3590222;40;20084;-64
2021/12/07 11:10:49;;;;;;;11.27;3.88;;;;;;;8.99;62.76;100655.72;3578899;40;20409;-63
2021/12/07 11:13:26;;;;;;;11.02;3.97;;;;;;;9.04;61.45;100659.88;3592291;40;20059;-64
2021/12/07 11:16:13;;;;;;;12.88;4.13;;;;;;;9.00;61.20;100655.63;3590639;40;20397;-64
2021/12/07 11:18:45;;;;;;;12.55;4.55;;;;;;;9.04;61.20;100651.84;3592308;39;20052;-65
2021/12/07 11:21:20;;;;;;;14.73;4.38;;;;;;;9.20;60.75;100646.44;3592692;39;20409;-63
2021/12/07 11:23:55;;;;;;;11.07;4.30;;;;;;;9.23;59.98;100651.63;3592889;40;20146;-64
2021/12/07 11:31:50;;;;;;;11.77;5.07;;;;;;;9.50;61.02;100641.03;3593825;40;20079;-64
2021/12/07 11:34:15;;;;;;;13.60;4.97;;;;;;;9.62;59.41;100638.59;3592705;40;20132;-65
2021/12/07 11:36:52;;;;;;;12.38;4.05;;;;;;;9.67;59.30;100628.41;3593204;40;20039;-65
2021/12/07 11:39:50;;;;;;;14.40;5.03;;;;;;;9.73;59.08;100630.72;3585412;40;20079;-65
2021/12/07 11:42:17;;;;;;;11.10;4.47;;;;;;;9.82;58.25;100634.66;3588848;40;20118;-65
2021/12/07 11:45:00;;;;;;;16.42;4.53;;;;;;;9.88;57.26;100629.78;3593549;40;20059;-65
2021/12/07 11:47:30;;;;;;;14.40;4.43;;;;;;;9.95;57.03;100628.44;3592790;40;20055;-65
2021/12/07 11:50:09;;;;;;;15.55;4.53;;;;;;;9.91;56.95;100624.22;3592194;40;20062;-66
2021/12/07 11:52:35;;;;;;;11.88;3.92;;;;;;;9.97;57.52;100615.78;3593122;40;20075;-65
2021/12/07 11:55:00;;;;;;;12.50;4.15;;;;;;;9.89;58.11;100615.38;3591702;40;20105;-65
2021/12/07 11:57:26;;;;;;;18.35;4.18;;;;;;;9.98;57.59;100608.59;3592540;40;20383;-65
2021/12/07 11:59:52;;;;;;;13.25;4.03;;;;;;;10.03;57.82;100611.00;3593234;40;20048;-65
2021/12/07 12:02:18;;;;;;;14.55;4.18;;;;;;;10.09;58.40;100599.88;3588614;40;20084;-65
2021/12/07 12:04:45;;;;;;;10.93;4.07;;;;;;;10.17;57.07;100602.91;3591582;40;20060;-63
2021/12/07 12:07:11;;;;;;;9.95;4.03;;;;;;;10.06;57.37;100583.94;3592668;40;20105;-64
2021/12/07 12:09:46;;;;;;;11.30;3.78;;;;;;;10.15;57.20;100588.75;3592276;40;20315;-65
2021/12/07 12:12:44;;;;;;;15.63;4.05;;;;;;;10.05;56.72;100585.75;3590809;40;20088;-65
2021/12/07 12:15:53;;;;;;;15.30;4.10;;;;;;;9.99;57.32;100581.66;3588293;40;20262;-65
2021/12/07 12:19:15;;;;;;;10.07;3.38;;;;;;;9.85;55.72;100573.59;3592894;40;20059;-64
2021/12/07 12:21:53;;;;;;;11.50;3.30;;;;;;;9.84;57.96;100561.13;3591956;40;20378;-64
2021/12/07 12:24:34;;;;;;;11.48;3.65;;;;;;;9.83;56.27;100561.22;3578199;40;20048;-65
2021/12/07 12:27:13;;;;;;;10.10;2.97;;;;;;;9.86;56.91;100552.97;3590015;40;20052;-65
2021/12/07 12:29:42;;;;;;;9.00;3.00;;;;;;;9.89;57.19;100553.63;3591651;40;20128;-64
2021/12/07 12:32:09;;;;;;;13.50;3.50;;;;;;;9.88;57.66;100559.97;3588913;40;20084;-64
2021/12/07 12:34:48;;;;;;;10.02;3.50;;;;;;;9.81;56.79;100536.31;3590164;40;20063;-65
2021/12/07 12:37:20;;;;;;;15.20;4.35;;;;;;;9.86;57.20;100539.56;3591075;40;20094;-65
2021/12/07 12:40:08;;;;;;;10.33;3.63;;;;;;;9.83;57.06;100540.63;3585786;40;20048;-64
2021/12/07 12:42:45;;;;;;;13.23;3.55;;;;;;;9.82;56.64;100527.28;3591863;40;20148;-65
2021/12/07 12:45:28;;;;;;;13.70;3.00;;;;;;;9.79;57.14;100522.97;3583380;40;20094;-65
2021/12/07 12:48:17;;;;;;;12.15;3.20;;;;;;;9.65;57.37;100514.94;3592597;40;20056;-65
2021/12/07 12:50:42;;;;;;;13.02;3.08;;;;;;;9.64;58.68;100499.78;3587789;40;20137;-64
2021/12/07 12:53:15;;;;;;;8.13;2.65;;;;;;;9.62;58.43;100488.31;3587648;40;20068;-65
2021/12/07 12:55:57;;;;;;;12.07;2.95;;;;;;;9.46;58.36;100477.66;3586851;39;20063;-65
2021/12/07 12:58:30;;;;;;;9.75;2.85;;;;;;;9.34;59.32;100470.38;3590346;40;20048;-65
2021/12/07 13:01:02;;;;;;;12.80;3.10;;;;;;;9.22;59.60;100461.28;3590714;40;20066;-64
2021/12/07 13:03:44;;;;;;;11.18;3.15;;;;;;;9.06;59.79;100456.84;3587746;40;20066;-65
2021/12/07 13:06:24;;;;;;;8.85;2.90;;;;;;;8.86;59.29;100446.50;3589750;40;20371;-65
2021/12/07 13:09:05;;;;;;;12.63;3.13;;;;;;;8.82;59.71;100423.53;3591556;40;20391;-64